createdAt,value
2019-05-15T00:01:59.743Z,11.90
2019-05-15T00:04:02.774Z,11.80
2019-05-15T00:06:08.245Z,11.80
2019-05-15T00:08:09.391Z,11.80
2019-05-15T00:10:11.627Z,11.80
2019-05-15T00:12:14.696Z,11.70
2019-05-15T00:14:18.191Z,11.70
2019-05-15T00:16:20.579Z,11.60
2019-05-15T00:18:23.585Z,11.60
2019-05-15T00:20:29.046Z,11.60
2019-05-15T00:22:29.466Z,11.60
2019-05-15T00:24:32.419Z,11.50
2019-05-15T00:26:35.342Z,11.50
2019-05-15T00:28:39.152Z,11.40
2019-05-15T00:30:42.799Z,11.40
2019-05-15T00:32:45.722Z,11.40
2019-05-15T00:34:48.879Z,11.40
2019-05-15T00:36:51.736Z,11.30
2019-05-15T00:38:54.664Z,11.30
2019-05-15T00:40:58.517Z,11.30
2019-05-15T00:43:00.573Z,11.20
2019-05-15T00:45:03.496Z,11.20
2019-05-15T00:47:10.228Z,11.10
2019-05-15T00:49:09.518Z,11.10
2019-05-15T00:51:14.748Z,11.00
2019-05-15T00:53:15.366Z,11.00
2019-05-15T00:55:19.067Z,11.00
2019-05-15T00:57:21.350Z,10.90
2019-05-15T00:59:27.516Z,10.90
2019-05-15T01:01:28.662Z,10.90
2019-05-15T01:03:31.703Z,10.90
2019-05-15T01:05:34.638Z,10.80
2019-05-15T01:07:39.203Z,10.70
2019-05-15T01:09:42.206Z,10.70
2019-05-15T01:11:46.066Z,10.60
2019-05-15T01:13:49.127Z,10.60
2019-05-15T01:15:52.059Z,10.60
2019-05-15T01:17:55.758Z,10.50
2019-05-15T01:19:58.873Z,10.50
2019-05-15T01:22:02.427Z,10.50
2019-05-15T01:24:05.304Z,10.50
2019-05-15T01:26:08.462Z,10.40
2019-05-15T01:28:12.092Z,10.40
2019-05-15T01:30:14.980Z,10.40
2019-05-15T01:32:19.072Z,10.40
2019-05-15T01:34:22.423Z,10.30
2019-05-15T01:36:25.316Z,10.30
2019-05-15T01:38:28.382Z,10.30
2019-05-15T01:40:32.023Z,10.20
2019-05-15T01:42:34.908Z,10.20
2019-05-15T01:44:39.075Z,10.20
2019-05-15T01:46:42.838Z,10.10
2019-05-15T01:48:46.468Z,10.10
2019-05-15T01:50:50.444Z,10.10
2019-05-15T01:52:54.687Z,10.00
2019-05-15T01:54:58.386Z,10.00
2019-05-15T01:57:01.237Z,10.00
2019-05-15T01:59:05.623Z,9.90
2019-05-15T02:01:08.920Z,9.90
2019-05-15T02:03:11.920Z,9.90
2019-05-15T02:05:14.787Z,9.90
2019-05-15T02:07:18.728Z,9.90
2019-05-15T02:09:20.702Z,9.80
2019-05-15T02:11:24.471Z,9.80
2019-05-15T02:13:28.280Z,9.80
2019-05-15T02:15:30.268Z,9.70
2019-05-15T02:17:33.265Z,9.70
2019-05-15T02:19:36.145Z,9.70
2019-05-15T02:21:39.099Z,9.70
2019-05-15T02:23:41.963Z,9.70
2019-05-15T02:25:44.880Z,9.70
2019-05-15T02:27:48.645Z,9.60
2019-05-15T02:29:52.036Z,9.60
2019-05-15T02:31:54.936Z,9.60
2019-05-15T02:33:59.344Z,9.60
2019-05-15T02:36:02.238Z,9.60
2019-05-15T02:38:05.129Z,9.60
2019-05-15T02:40:09.967Z,9.50
2019-05-15T02:42:11.779Z,9.50
2019-05-15T02:44:14.661Z,9.50
2019-05-15T02:46:19.481Z,9.50
2019-05-15T02:48:21.452Z,9.50
2019-05-15T02:50:24.459Z,9.50
2019-05-15T02:52:29.511Z,9.40
2019-05-15T02:54:31.860Z,9.40
2019-05-15T02:56:38.948Z,9.40
2019-05-15T02:58:39.983Z,9.40
2019-05-15T03:00:48.294Z,9.40
2019-05-15T03:02:49.681Z,9.40
2019-05-15T03:04:50.376Z,9.30
2019-05-15T03:06:53.303Z,9.30
2019-05-15T03:08:59.408Z,9.30
2019-05-15T03:10:59.787Z,9.20
2019-05-15T03:13:02.784Z,9.20
2019-05-15T03:15:09.189Z,9.20
2019-05-15T03:17:09.771Z,9.20
2019-05-15T03:19:12.620Z,9.10
2019-05-15T03:21:18.630Z,9.10
2019-05-15T03:23:19.813Z,9.10
2019-05-15T03:25:22.617Z,9.10
2019-05-15T03:27:25.632Z,9.00
2019-05-15T03:29:29.466Z,9.10
2019-05-15T03:31:48.757Z,9.00
2019-05-15T03:33:37.111Z,9.00
2019-05-15T03:35:42.943Z,9.00
2019-05-15T03:37:40.970Z,9.00
2019-05-15T03:39:48.369Z,9.00
2019-05-15T03:41:49.692Z,9.00
2019-05-15T03:43:51.296Z,8.90
2019-05-15T03:45:54.184Z,8.90
2019-05-15T03:47:59.561Z,8.90
2019-05-15T03:50:00.283Z,8.90
2019-05-15T03:52:03.022Z,8.90
2019-05-15T03:54:09.177Z,8.90
2019-05-15T03:56:09.682Z,8.90
2019-05-15T03:58:12.264Z,8.80
2019-05-15T04:00:15.164Z,8.90
2019-05-15T04:02:19.379Z,8.90
2019-05-15T04:04:20.925Z,8.80
2019-05-15T04:06:23.834Z,8.80
2019-05-15T04:08:29.965Z,8.90
2019-05-15T04:10:30.919Z,8.90
2019-05-15T04:12:34.020Z,8.80
2019-05-15T04:14:39.442Z,8.90
2019-05-15T04:16:40.574Z,8.80
2019-05-15T04:18:43.556Z,8.80
2019-05-15T04:20:49.184Z,8.80
2019-05-15T04:22:51.607Z,8.80
2019-05-15T04:24:54.499Z,8.80
2019-05-15T04:26:59.900Z,8.80
2019-05-15T04:29:00.340Z,8.80
2019-05-15T04:31:03.310Z,8.80
2019-05-15T04:33:09.072Z,8.80
2019-05-15T04:35:09.542Z,8.90
2019-05-15T04:37:12.049Z,8.90
2019-05-15T04:39:14.923Z,8.90
2019-05-15T04:41:19.974Z,8.90
2019-05-15T04:43:22.324Z,8.90
2019-05-15T04:45:25.183Z,9.00
2019-05-15T04:47:30.285Z,9.00
2019-05-15T04:49:31.281Z,9.00
2019-05-15T04:51:34.142Z,9.10
2019-05-15T04:53:39.365Z,9.10
2019-05-15T04:55:40.786Z,9.20
2019-05-15T04:57:42.995Z,9.20
2019-05-15T04:59:49.708Z,9.20
2019-05-15T05:01:53.294Z,9.30
2019-05-15T05:03:53.800Z,9.40
2019-05-15T05:05:59.127Z,9.40
2019-05-15T05:08:00.356Z,9.50
2019-05-15T05:10:03.231Z,9.50
2019-05-15T05:12:08.420Z,9.50
2019-05-15T05:14:09.936Z,9.60
2019-05-15T05:16:14.073Z,9.70
2019-05-15T05:18:18.985Z,9.80
2019-05-15T05:20:21.343Z,9.80
2019-05-15T05:22:24.236Z,9.80
2019-05-15T05:24:28.616Z,10.00
2019-05-15T05:26:31.552Z,10.00
2019-05-15T05:28:35.181Z,10.10
2019-05-15T05:30:38.588Z,10.10
2019-05-15T05:32:41.085Z,10.10
2019-05-15T05:34:45.156Z,10.20
2019-05-15T05:36:48.979Z,10.20
2019-05-15T05:38:51.983Z,10.30
2019-05-15T05:40:58.498Z,10.40
2019-05-15T05:42:59.641Z,10.40
2019-05-15T05:45:03.912Z,10.50
2019-05-15T05:47:09.151Z,10.50
2019-05-15T05:49:10.596Z,10.60
2019-05-15T05:51:15.307Z,10.60
2019-05-15T05:53:21.321Z,10.70
2019-05-15T05:55:22.512Z,10.60
2019-05-15T05:57:27.946Z,10.80
2019-05-15T05:59:29.082Z,10.80
2019-05-15T06:01:36.270Z,10.90
2019-05-15T06:03:38.163Z,10.90
2019-05-15T06:05:39.362Z,10.90
2019-05-15T06:07:42.251Z,11.00
2019-05-15T06:09:45.927Z,11.10
2019-05-15T06:11:48.957Z,11.00
2019-05-15T06:13:52.554Z,11.10
2019-05-15T06:15:54.624Z,11.20
2019-05-15T06:17:58.524Z,11.20
2019-05-15T06:20:00.460Z,11.20
2019-05-15T06:22:03.543Z,11.30
2019-05-15T06:24:12.657Z,11.30
2019-05-15T06:26:09.746Z,11.30
2019-05-15T06:28:12.276Z,11.40
2019-05-15T06:30:22.141Z,11.50
2019-05-15T06:32:20.707Z,11.50
2019-05-15T06:34:24.913Z,11.50
2019-05-15T06:36:28.914Z,11.50
2019-05-15T06:38:31.184Z,11.50
2019-05-15T06:40:34.489Z,11.60
2019-05-15T06:42:39.442Z,11.60
2019-05-15T06:44:43.564Z,11.70
2019-05-15T06:46:48.341Z,11.60
2019-05-15T06:48:49.359Z,11.70
2019-05-15T06:50:52.281Z,11.70
2019-05-15T06:52:55.932Z,11.80
2019-05-15T06:54:59.364Z,11.80
2019-05-15T06:57:03.366Z,11.90
2019-05-15T06:59:08.779Z,11.90
2019-05-15T07:01:09.931Z,11.90
2019-05-15T07:03:21.469Z,11.90
2019-05-15T07:05:18.412Z,12.00
2019-05-15T07:07:19.712Z,12.00
2019-05-15T07:09:22.691Z,12.10
2019-05-15T07:11:28.194Z,12.10
2019-05-15T07:13:30.096Z,12.10
2019-05-15T07:15:33.775Z,12.20
2019-05-15T07:17:39.187Z,12.20
2019-05-15T07:19:41.349Z,12.20
2019-05-15T07:21:44.475Z,12.20
2019-05-15T07:23:49.659Z,12.30
2019-05-15T07:25:50.471Z,12.30
2019-05-15T07:27:53.328Z,12.40
2019-05-15T07:29:58.372Z,12.40
2019-05-15T07:31:59.395Z,12.40
2019-05-15T07:34:02.387Z,12.50
2019-05-15T07:36:07.908Z,12.50
2019-05-15T07:38:09.077Z,12.50
2019-05-15T07:40:13.479Z,12.50
2019-05-15T07:42:18.441Z,12.50
2019-05-15T07:44:20.019Z,12.70
2019-05-15T07:46:22.971Z,12.70
2019-05-15T07:48:25.932Z,12.80
2019-05-15T07:50:30.628Z,13.00
2019-05-15T07:52:33.501Z,12.90
2019-05-15T07:54:38.294Z,13.10
2019-05-15T07:56:40.987Z,13.10
2019-05-15T07:58:44.956Z,13.10
2019-05-15T08:00:49.258Z,13.20
2019-05-15T08:02:50.809Z,13.20
2019-05-15T08:04:54.662Z,13.20
2019-05-15T08:06:59.127Z,13.30
2019-05-15T08:09:01.308Z,13.30
2019-05-15T08:11:17.586Z,13.30
2019-05-15T08:13:09.017Z,13.20
2019-05-15T08:15:12.038Z,13.20
2019-05-15T08:17:19.000Z,13.20
2019-05-15T08:19:18.686Z,13.20
2019-05-15T08:21:22.387Z,13.30
2019-05-15T08:23:25.287Z,13.30
2019-05-15T08:25:35.119Z,13.30
2019-05-15T08:27:32.508Z,13.40
2019-05-15T08:29:35.380Z,13.30
2019-05-15T08:31:38.977Z,13.40
2019-05-15T08:33:41.323Z,13.40
2019-05-15T08:35:48.018Z,13.40
2019-05-15T08:37:49.092Z,13.40
2019-05-15T08:39:50.227Z,13.50
2019-05-15T08:41:54.914Z,13.50
2019-05-15T08:43:58.007Z,13.50
2019-05-15T08:46:00.727Z,13.60
2019-05-15T08:48:03.607Z,13.60
2019-05-15T08:50:08.843Z,13.70
2019-05-15T08:52:11.355Z,13.70
2019-05-15T08:54:14.250Z,13.70
2019-05-15T08:56:19.354Z,13.80
2019-05-15T08:58:21.690Z,13.90
2019-05-15T09:00:24.563Z,13.90
2019-05-15T09:02:28.730Z,13.90
2019-05-15T09:04:34.875Z,13.90
2019-05-15T09:06:33.363Z,14.00
2019-05-15T09:08:39.035Z,14.00
2019-05-15T09:10:40.021Z,14.00
2019-05-15T09:12:43.524Z,14.10
2019-05-15T09:14:48.567Z,14.10
2019-05-15T09:16:49.443Z,14.10
2019-05-15T09:18:52.329Z,14.20
2019-05-15T09:20:55.232Z,14.20
2019-05-15T09:22:59.048Z,14.30
2019-05-15T09:25:03.208Z,14.30
2019-05-15T09:27:09.717Z,14.30
2019-05-15T09:29:09.503Z,14.30
2019-05-15T09:31:12.168Z,14.30
2019-05-15T09:33:15.265Z,14.40
2019-05-15T09:35:18.670Z,14.40
2019-05-15T09:37:22.562Z,14.50
2019-05-15T09:39:25.471Z,14.50
2019-05-15T09:41:29.104Z,14.60
2019-05-15T09:43:32.040Z,14.60
2019-05-15T09:45:37.982Z,14.60
2019-05-15T09:47:39.583Z,14.60
2019-05-15T09:49:41.476Z,14.60
2019-05-15T09:51:44.600Z,14.70
2019-05-15T09:53:49.251Z,14.70
2019-05-15T09:55:52.128Z,14.70
2019-05-15T09:57:55.501Z,14.80
2019-05-15T10:00:00.267Z,14.80
2019-05-15T10:02:03.150Z,14.80
2019-05-15T10:04:08.343Z,14.80
2019-05-15T10:06:09.239Z,14.90
2019-05-15T10:08:12.642Z,14.90
2019-05-15T10:10:15.556Z,14.90
2019-05-15T10:12:18.499Z,14.90
2019-05-15T10:14:21.506Z,14.90
2019-05-15T10:16:25.178Z,15.00
2019-05-15T10:18:28.339Z,15.00
2019-05-15T10:20:30.924Z,15.00
2019-05-15T10:22:33.931Z,15.10
2019-05-15T10:24:36.909Z,15.10
2019-05-15T10:26:40.568Z,15.10
2019-05-15T10:28:43.484Z,15.10
2019-05-15T10:30:48.801Z,15.20
2019-05-15T10:32:49.993Z,15.20
2019-05-15T10:34:53.663Z,15.30
2019-05-15T10:36:58.770Z,15.30
2019-05-15T10:39:00.323Z,15.30
2019-05-15T10:41:09.515Z,15.30
2019-05-15T10:43:09.042Z,15.30
2019-05-15T10:45:11.262Z,15.30
2019-05-15T10:47:14.632Z,15.30
2019-05-15T10:49:18.905Z,15.30
2019-05-15T10:51:20.400Z,15.30
2019-05-15T10:53:24.082Z,15.30
2019-05-15T10:55:28.883Z,15.30
2019-05-15T10:57:29.994Z,15.40
2019-05-15T10:59:33.760Z,15.50
2019-05-15T11:01:38.603Z,15.50
2019-05-15T11:03:40.185Z,15.50
2019-05-15T11:05:45.715Z,15.50
2019-05-15T11:07:48.049Z,15.60
2019-05-15T11:09:49.052Z,15.60
2019-05-15T11:11:51.796Z,15.70
2019-05-15T11:13:54.535Z,15.70
2019-05-15T11:15:57.949Z,15.80
2019-05-15T11:18:00.872Z,15.80
2019-05-15T11:20:03.770Z,15.90
2019-05-15T11:22:08.911Z,15.90
2019-05-15T11:24:09.664Z,15.90
2019-05-15T11:26:12.530Z,16.00
2019-05-15T11:28:15.417Z,16.00
2019-05-15T11:30:19.210Z,16.10
2019-05-15T11:32:21.418Z,16.10
2019-05-15T11:34:25.096Z,16.30
2019-05-15T11:36:28.917Z,16.30
2019-05-15T11:38:32.868Z,16.40
2019-05-15T11:40:35.768Z,16.40
2019-05-15T11:42:39.605Z,16.50
2019-05-15T11:44:42.355Z,16.50
2019-05-15T11:46:45.240Z,16.60
2019-05-15T11:48:49.798Z,16.60
2019-05-15T11:50:51.163Z,16.60
2019-05-15T11:52:58.389Z,16.80
2019-05-15T11:54:59.733Z,16.80
2019-05-15T11:57:02.626Z,16.80
2019-05-15T11:59:08.556Z,16.90
2019-05-15T12:01:10.047Z,16.90
2019-05-15T12:03:13.694Z,17.00
2019-05-15T12:05:18.283Z,17.00
2019-05-15T12:07:19.473Z,17.10
2019-05-15T12:09:22.348Z,17.10
2019-05-15T12:11:33.227Z,17.20
2019-05-15T12:13:29.912Z,17.30
2019-05-15T12:15:32.839Z,17.30
2019-05-15T12:17:38.815Z,17.40
2019-05-15T12:19:40.013Z,17.50
2019-05-15T12:21:43.715Z,17.50
2019-05-15T12:23:48.742Z,17.60
2019-05-15T12:25:49.494Z,17.70
2019-05-15T12:27:52.376Z,17.80
2019-05-15T12:29:55.535Z,17.90
2019-05-15T12:32:00.962Z,17.90
2019-05-15T12:34:02.315Z,18.00
2019-05-15T12:36:10.184Z,18.20
2019-05-15T12:38:10.603Z,18.30
2019-05-15T13:00:46.087Z,19.20
2019-05-15T13:02:49.359Z,19.30
2019-05-15T13:04:52.915Z,19.60
2019-05-15T13:07:12.406Z,19.50
2019-05-15T13:08:59.441Z,19.60
2019-05-15T13:11:02.617Z,19.70
2019-05-15T13:13:05.776Z,19.70
2019-05-15T13:15:08.664Z,19.70
2019-05-15T13:17:13.115Z,19.70
2019-05-15T13:19:18.988Z,19.80
2019-05-15T13:21:20.849Z,19.80
2019-05-15T13:23:24.807Z,19.90
2019-05-15T13:25:29.192Z,20.00
2019-05-15T13:27:32.092Z,20.00
2019-05-15T13:29:34.983Z,20.20
2019-05-15T13:31:39.366Z,20.30
2019-05-15T13:33:42.376Z,20.30
2019-05-15T13:35:45.696Z,20.40
2019-05-15T13:37:49.546Z,20.40
2019-05-15T13:39:51.084Z,20.40
2019-05-15T13:41:53.969Z,20.40
2019-05-15T13:43:58.402Z,20.40
2019-05-15T13:45:59.867Z,20.50
2019-05-15T13:48:02.780Z,20.50
2019-05-15T13:50:07.943Z,20.60
2019-05-15T13:52:10.248Z,20.60
2019-05-15T13:54:13.943Z,20.60
2019-05-15T13:56:18.245Z,20.60
2019-05-15T13:58:19.903Z,20.70
2019-05-15T14:00:22.834Z,20.70
2019-05-15T14:02:28.061Z,20.80
2019-05-15T14:04:30.912Z,20.80
2019-05-15T14:06:34.057Z,20.80
2019-05-15T14:08:38.306Z,20.90
2019-05-15T14:10:40.651Z,20.90
2019-05-15T14:12:43.559Z,20.90
2019-05-15T14:14:49.026Z,21.10
2019-05-15T14:16:50.970Z,21.10
2019-05-15T14:18:55.381Z,21.40
2019-05-15T14:20:58.641Z,21.40
2019-05-15T14:23:01.394Z,21.50
2019-05-15T14:25:05.039Z,21.60
2019-05-15T14:27:08.632Z,21.60
2019-05-15T14:29:10.918Z,21.60
2019-05-15T14:31:13.824Z,21.50
2019-05-15T14:33:19.489Z,21.70
2019-05-15T14:35:21.217Z,21.60
2019-05-15T14:37:24.853Z,21.80
2019-05-15T14:39:27.741Z,21.80
2019-05-15T14:41:30.756Z,21.80
2019-05-15T14:43:38.173Z,21.90
2019-05-15T14:45:39.107Z,21.90
2019-05-15T14:47:43.415Z,22.10
2019-05-15T14:49:49.454Z,22.20
2019-05-15T14:52:04.565Z,22.20
2019-05-15T14:54:03.635Z,22.20
2019-05-15T15:01:13.088Z,22.20
2019-05-15T15:03:13.899Z,21.50
2019-05-15T15:05:21.522Z,21.50
2019-05-15T15:07:19.768Z,21.50
2019-05-15T15:09:22.640Z,21.40
2019-05-15T15:11:25.535Z,21.40
2019-05-15T15:13:28.930Z,21.40
2019-05-15T15:15:31.929Z,21.40
2019-05-15T15:17:34.896Z,21.40
2019-05-15T15:19:38.911Z,21.30
2019-05-15T15:21:41.595Z,21.20
2019-05-15T15:23:47.954Z,21.20
2019-05-15T15:25:48.969Z,21.20
2019-05-15T15:27:51.858Z,21.10
2019-05-15T15:29:55.269Z,21.10
2019-05-15T15:31:59.053Z,20.90
2019-05-15T15:34:02.031Z,20.80
2019-05-15T15:36:05.679Z,20.70
2019-05-15T15:38:13.207Z,20.70
2019-05-15T15:40:12.087Z,20.70
2019-05-15T15:42:14.977Z,20.60
2019-05-15T15:44:18.099Z,20.60
2019-05-15T15:46:21.120Z,20.60
2019-05-15T15:48:23.987Z,20.60
2019-05-15T15:50:28.826Z,20.60
2019-05-15T15:52:29.909Z,20.60
2019-05-15T15:54:32.765Z,20.60
2019-05-15T15:56:38.990Z,20.70
2019-05-15T15:58:40.140Z,20.60
2019-05-15T16:00:43.019Z,20.60
2019-05-15T16:02:48.218Z,20.60
2019-05-15T16:04:48.803Z,20.60
2019-05-15T16:06:51.676Z,20.60
2019-05-15T16:08:55.897Z,20.70
2019-05-15T16:10:59.423Z,20.70
2019-05-15T16:13:03.855Z,20.70
2019-05-15T16:15:08.804Z,20.60
2019-05-15T16:17:09.780Z,20.70
2019-05-15T16:19:12.650Z,20.70
2019-05-15T16:21:15.667Z,20.90
2019-05-15T16:23:20.279Z,21.00
2019-05-15T16:25:24.178Z,21.00
2019-05-15T16:27:28.697Z,21.10
2019-05-15T16:29:30.727Z,21.30
2019-05-15T16:31:33.611Z,21.30
2019-05-15T16:33:38.861Z,21.30
2019-05-15T16:35:39.403Z,21.30
2019-05-15T16:37:42.400Z,21.30
2019-05-15T16:39:45.397Z,21.30
2019-05-15T16:41:49.111Z,21.40
2019-05-15T16:43:51.906Z,21.40
2019-05-15T16:45:54.858Z,21.50
2019-05-15T16:47:58.786Z,21.60
2019-05-15T16:50:01.852Z,21.50
2019-05-15T16:52:05.620Z,21.60
2019-05-15T16:54:09.165Z,21.60
2019-05-15T16:56:12.484Z,21.60
2019-05-15T16:58:15.401Z,21.60
2019-05-15T17:00:18.646Z,21.50
2019-05-15T17:02:21.174Z,21.40
2019-05-15T17:04:24.153Z,21.40
2019-05-15T17:06:28.203Z,21.20
2019-05-15T17:08:32.305Z,21.20
2019-05-15T17:10:33.795Z,21.20
2019-05-15T17:12:38.775Z,21.10
2019-05-15T17:14:39.559Z,21.10
2019-05-15T17:16:42.463Z,21.10
2019-05-15T17:18:48.213Z,21.00
2019-05-15T17:20:50.305Z,21.00
2019-05-15T17:22:53.217Z,21.00
2019-05-15T17:24:58.174Z,20.90
2019-05-15T17:26:59.778Z,20.90
2019-05-15T17:29:01.974Z,20.90
2019-05-15T17:31:04.849Z,20.80
2019-05-15T17:33:07.749Z,20.80
2019-05-15T17:35:10.820Z,20.70
2019-05-15T17:37:14.797Z,20.60
2019-05-15T17:39:20.074Z,20.60
2019-05-15T17:41:20.624Z,20.50
2019-05-15T17:43:25.007Z,20.40
2019-05-15T17:45:28.326Z,20.40
2019-05-15T17:47:30.787Z,20.40
2019-05-15T17:49:33.694Z,20.30
2019-05-15T17:51:38.357Z,20.20
2019-05-15T17:53:40.220Z,20.20
2019-05-15T17:55:43.247Z,20.20
2019-05-15T17:57:54.621Z,20.20
2019-05-15T17:59:50.158Z,20.00
2019-05-15T18:01:54.364Z,20.00
2019-05-15T18:03:59.361Z,20.00
2019-05-15T18:06:01.816Z,19.90
2019-05-15T18:08:04.761Z,19.80
2019-05-15T18:10:08.427Z,19.80
2019-05-15T18:12:12.162Z,19.70
2019-05-15T18:14:14.543Z,19.60
2019-05-15T18:16:18.202Z,19.60
2019-05-15T18:18:21.205Z,19.40
2019-05-15T18:20:25.075Z,19.40
2019-05-15T18:22:29.472Z,19.30
2019-05-15T18:24:32.590Z,19.30
2019-05-15T18:26:38.517Z,19.20
2019-05-15T18:28:39.577Z,19.10
2019-05-15T18:30:44.064Z,19.00
2019-05-15T18:32:48.823Z,19.00
2019-05-15T18:34:50.845Z,18.90
2019-05-15T18:36:53.931Z,18.80
2019-05-15T18:38:58.840Z,18.80
2019-05-15T18:41:00.519Z,18.60
2019-05-15T18:43:03.533Z,18.60
2019-05-15T18:45:07.191Z,18.50
2019-05-15T18:47:10.079Z,18.50
2019-05-15T18:49:13.068Z,18.40
2019-05-15T18:51:15.975Z,18.40
2019-05-15T18:53:19.710Z,18.30
2019-05-15T18:55:22.831Z,18.30
2019-05-15T18:57:25.719Z,18.20
2019-05-15T18:59:28.988Z,18.20
2019-05-15T19:01:31.926Z,18.10
2019-05-15T19:03:35.840Z,18.10
2019-05-15T19:05:38.981Z,18.00
2019-05-15T19:07:43.499Z,17.90
2019-05-15T19:09:48.059Z,17.90
2019-05-15T19:11:50.761Z,17.80
2019-05-15T19:13:53.793Z,17.80
2019-05-15T19:15:57.990Z,17.70
2019-05-15T19:17:59.586Z,17.70
2019-05-15T19:20:02.520Z,17.60
2019-05-15T19:22:07.736Z,17.60
2019-05-15T19:24:09.107Z,17.50
2019-05-15T19:26:12.014Z,17.50
2019-05-15T19:28:15.688Z,17.40
2019-05-15T19:30:19.040Z,17.40
2019-05-15T19:32:22.251Z,17.30
2019-05-15T19:34:25.243Z,17.30
2019-05-15T19:36:28.925Z,17.20
2019-05-15T19:38:31.931Z,17.20
2019-05-15T19:40:35.398Z,17.20
2019-05-15T19:42:38.592Z,17.20
2019-05-15T19:44:41.171Z,17.10
2019-05-15T19:46:44.048Z,17.10
2019-05-15T19:48:48.967Z,17.10
2019-05-15T19:50:50.655Z,17.00
2019-05-15T19:52:54.306Z,17.00
2019-05-15T19:54:57.870Z,17.00
2019-05-15T19:57:00.516Z,16.90
2019-05-15T19:59:03.429Z,16.90
2019-05-15T20:01:08.133Z,16.90
2019-05-15T20:03:09.238Z,16.80
2019-05-15T20:05:12.122Z,16.80
2019-05-15T20:07:15.004Z,16.80
2019-05-15T20:09:18.280Z,16.70
2019-05-15T20:11:21.604Z,16.70
2019-05-15T20:13:24.519Z,16.70
2019-05-15T20:15:28.717Z,16.70
2019-05-15T20:17:32.056Z,16.60
2019-05-15T20:19:34.981Z,16.60
2019-05-15T20:21:37.891Z,16.60
2019-05-15T20:23:41.179Z,16.60
2019-05-15T20:25:44.124Z,16.50
2019-05-15T20:27:48.187Z,16.50
2019-05-15T20:29:51.511Z,16.50
2019-05-15T20:31:55.921Z,16.50
2019-05-15T20:34:05.218Z,16.40
2019-05-15T20:36:00.476Z,16.40
2019-05-15T20:38:03.451Z,16.40
2019-05-15T20:40:09.089Z,16.40
2019-05-15T20:42:10.623Z,16.40
2019-05-15T20:44:13.776Z,16.30
2019-05-15T20:46:18.994Z,16.30
2019-05-15T20:48:20.631Z,16.30
2019-05-15T20:50:24.354Z,16.30
2019-05-15T20:52:28.634Z,16.30
2019-05-15T20:54:32.459Z,16.20
2019-05-15T20:56:38.308Z,16.20
2019-05-15T20:58:39.123Z,16.20
2019-05-15T21:00:42.905Z,16.20
2019-05-15T21:02:48.371Z,16.20
2019-05-15T21:04:48.789Z,16.20
2019-05-15T21:06:51.802Z,16.10
2019-05-15T21:08:57.777Z,16.10
2019-05-15T21:10:58.968Z,16.10
2019-05-15T21:13:01.432Z,16.10
2019-05-15T21:15:04.319Z,16.10
2019-05-15T21:17:08.237Z,16.10
2019-05-15T21:19:10.862Z,16.00
2019-05-15T21:21:13.899Z,16.00
2019-05-15T21:23:18.306Z,16.00
2019-05-15T21:25:21.778Z,15.90
2019-05-15T21:27:24.952Z,15.90
2019-05-15T21:29:27.650Z,15.90
2019-05-15T21:31:30.512Z,15.80
2019-05-15T21:33:33.395Z,15.80
2019-05-15T21:35:38.181Z,15.70
2019-05-15T21:37:39.378Z,15.70
2019-05-15T21:39:42.296Z,15.70
2019-05-15T21:41:45.347Z,15.70
2019-05-15T21:43:50.530Z,15.70
2019-05-15T21:45:52.075Z,15.60
2019-05-15T21:47:55.123Z,15.60
2019-05-15T21:49:58.815Z,15.60
2019-05-15T21:52:02.200Z,15.60
2019-05-15T21:54:05.572Z,15.60
2019-05-15T21:56:08.452Z,15.50
2019-05-15T21:58:11.327Z,15.50
2019-05-15T22:00:18.021Z,15.50
2019-05-15T22:02:20.671Z,15.50
2019-05-15T22:04:23.489Z,15.50
2019-05-15T22:06:28.884Z,15.50
2019-05-15T22:08:29.454Z,15.50
2019-05-15T22:10:32.327Z,15.50
2019-05-15T22:12:37.395Z,15.50
2019-05-15T22:14:39.991Z,15.50
2019-05-15T22:16:42.099Z,15.40
2019-05-15T22:18:45.090Z,15.50
2019-05-15T22:20:48.170Z,15.50
2019-05-15T22:22:52.389Z,15.40
2019-05-15T22:24:55.468Z,15.40
2019-05-15T22:26:58.754Z,15.40
2019-05-15T22:29:01.238Z,15.40
2019-05-15T22:31:04.419Z,15.40
2019-05-15T22:33:08.717Z,15.40
2019-05-15T22:35:14.031Z,15.40
2019-05-15T22:37:14.143Z,15.30
2019-05-15T22:39:18.772Z,15.30
2019-05-15T22:41:19.943Z,15.30
2019-05-15T22:43:22.864Z,15.30
2019-05-15T22:45:28.595Z,15.30
2019-05-15T22:47:29.460Z,15.20
2019-05-15T22:49:32.396Z,15.20
2019-05-15T22:51:35.266Z,15.20
2019-05-15T22:53:38.339Z,15.20
2019-05-15T22:55:41.084Z,15.20
2019-05-15T22:57:44.020Z,15.10
2019-05-15T22:59:48.765Z,15.10
2019-05-15T23:01:50.909Z,15.10
2019-05-15T23:03:54.559Z,15.10
2019-05-15T23:05:58.271Z,15.10
2019-05-15T23:08:01.239Z,15.10
2019-05-15T23:10:04.995Z,15.10
2019-05-15T23:12:11.487Z,15.10
2019-05-15T23:14:11.057Z,15.00
2019-05-15T23:16:13.943Z,15.00
2019-05-15T23:18:17.894Z,15.00
2019-05-15T23:20:20.619Z,15.00
2019-05-15T23:22:25.431Z,15.00
2019-05-15T23:24:28.342Z,15.00
2019-05-15T23:26:31.445Z,15.00
2019-05-15T23:28:35.070Z,14.90
2019-05-15T23:30:37.977Z,14.90
2019-05-15T23:32:40.979Z,14.90
2019-05-15T23:34:43.909Z,14.90
2019-05-15T23:36:48.344Z,14.80
2019-05-15T23:38:50.131Z,14.80
2019-05-15T23:40:53.862Z,14.80
2019-05-15T23:42:57.502Z,14.80
2019-05-15T23:45:00.419Z,14.80
2019-05-15T23:47:04.072Z,14.70
2019-05-15T23:49:08.340Z,14.70
2019-05-15T23:51:10.764Z,14.70
2019-05-15T23:53:19.107Z,14.70
2019-05-15T23:55:19.031Z,14.70
2019-05-15T23:57:22.637Z,14.70
2019-05-15T23:59:28.194Z,14.60
